createdAt,value
2018-03-20T00:00:35.581Z,38.47
2018-03-20T00:03:03.052Z,37.87
2018-03-20T00:05:30.523Z,37.53
2018-03-20T00:07:57.983Z,38.47
2018-03-20T00:10:25.512Z,39.97
2018-03-20T00:12:54.174Z,37.40
2018-03-20T00:15:21.631Z,33.77
2018-03-20T00:17:49.098Z,36.07
2018-03-20T00:20:16.561Z,35.33
2018-03-20T00:22:44.030Z,37.67
2018-03-20T00:25:11.490Z,40.00
2018-03-20T00:27:39.735Z,36.20
2018-03-20T00:30:07.211Z,36.30
2018-03-20T00:32:34.684Z,36.10
2018-03-20T00:35:02.161Z,36.87
2018-03-20T00:37:30.393Z,39.23
2018-03-20T00:39:57.899Z,39.93
2018-03-20T00:42:26.142Z,40.27
2018-03-20T00:44:53.826Z,38.23
2018-03-20T00:47:21.298Z,39.63
2018-03-20T00:49:49.819Z,38.47
2018-03-20T00:52:17.299Z,37.50
2018-03-20T00:54:44.771Z,39.43
2018-03-20T00:57:12.271Z,41.40
2018-03-20T00:59:39.734Z,40.50
2018-03-20T01:02:07.212Z,38.13
2018-03-20T01:04:34.677Z,37.00
2018-03-20T01:07:02.134Z,40.30
2018-03-20T01:09:29.609Z,41.30
2018-03-20T01:11:57.084Z,40.13
2018-03-20T01:14:25.363Z,41.90
2018-03-20T01:16:52.794Z,36.97
2018-03-20T01:19:20.265Z,44.87
2018-03-20T01:21:47.740Z,38.40
2018-03-20T01:24:15.202Z,37.03
2018-03-20T01:26:43.432Z,34.97
2018-03-20T01:29:10.911Z,39.33
2018-03-20T01:31:38.997Z,40.87
2018-03-20T01:34:07.250Z,41.63
2018-03-20T01:36:34.711Z,38.77
2018-03-20T01:39:02.195Z,42.97
2018-03-20T01:41:30.413Z,41.97
2018-03-20T01:43:57.893Z,43.87
2018-03-20T01:46:25.357Z,36.73
2018-03-20T01:48:53.085Z,42.73
2018-03-20T01:51:20.549Z,44.83
2018-03-20T01:53:48.012Z,45.83
2018-03-20T01:56:15.481Z,44.27
2018-03-20T01:58:43.219Z,45.77
2018-03-20T02:01:10.773Z,48.57
2018-03-20T02:03:38.243Z,49.17
2018-03-20T02:06:05.710Z,43.07
2018-03-20T02:08:33.191Z,42.27
2018-03-20T02:11:00.651Z,46.23
2018-03-20T02:13:28.126Z,45.43
2018-03-20T02:15:56.355Z,42.67
2018-03-20T02:18:23.827Z,45.37
2018-03-20T02:20:51.566Z,42.70
2018-03-20T02:23:19.027Z,42.27
2018-03-20T02:25:46.502Z,43.47
2018-03-20T02:28:13.967Z,43.33
2018-03-20T02:30:41.438Z,42.70
2018-03-20T02:33:09.357Z,40.63
2018-03-20T02:35:36.831Z,41.90
2018-03-20T02:38:04.315Z,42.27
2018-03-20T02:40:31.793Z,43.27
2018-03-20T02:43:00.149Z,42.40
2018-03-20T02:45:27.611Z,38.90
2018-03-20T02:47:55.083Z,41.87
2018-03-20T02:50:23.331Z,36.17
2018-03-20T02:52:50.797Z,37.23
2018-03-20T02:55:18.279Z,37.60
2018-03-20T02:57:46.511Z,39.43
2018-03-20T03:00:13.983Z,39.30
2018-03-20T03:02:41.448Z,37.50
2018-03-20T03:05:08.930Z,36.53
2018-03-20T03:07:37.447Z,39.27
2018-03-20T03:10:04.929Z,39.47
2018-03-20T03:12:32.416Z,36.57
2018-03-20T03:15:00.646Z,38.30
2018-03-20T03:17:28.119Z,39.13
2018-03-20T03:19:56.342Z,38.20
2018-03-20T03:22:24.045Z,36.97
2018-03-20T03:24:51.511Z,33.00
2018-03-20T03:27:18.994Z,33.20
2018-03-20T03:29:46.462Z,31.47
2018-03-20T03:32:14.694Z,32.50
2018-03-20T03:34:42.165Z,30.37
2018-03-20T03:37:09.633Z,32.87
2018-03-20T03:39:37.106Z,33.87
2018-03-20T03:42:05.342Z,34.70
2018-03-20T03:44:32.810Z,33.73
2018-03-20T03:47:00.270Z,29.97
2018-03-20T03:49:27.746Z,31.17
2018-03-20T03:51:55.198Z,33.60
2018-03-20T03:54:22.666Z,30.43
2018-03-20T03:56:50.138Z,30.47
2018-03-20T03:59:17.606Z,28.60
2018-03-20T04:01:45.073Z,31.73
2018-03-20T04:04:12.547Z,28.47
2018-03-20T04:06:40.014Z,25.20
2018-03-20T04:09:09.027Z,31.67
2018-03-20T04:11:36.501Z,27.97
2018-03-20T04:14:03.970Z,27.07
2018-03-20T04:16:31.434Z,30.87
2018-03-20T04:18:59.742Z,30.50
2018-03-20T04:21:27.425Z,28.37
2018-03-20T04:23:54.909Z,28.33
2018-03-20T04:26:22.371Z,27.93
2018-03-20T04:28:50.624Z,29.87
2018-03-20T04:31:18.094Z,31.70
2018-03-20T04:33:45.563Z,28.27
2018-03-20T04:36:13.043Z,29.30
2018-03-20T04:38:40.503Z,28.53
2018-03-20T04:41:07.977Z,28.20
2018-03-20T04:43:35.457Z,30.90
2018-03-20T04:46:02.975Z,31.17
2018-03-20T04:48:30.407Z,27.37
2018-03-20T04:50:57.880Z,29.37
2018-03-20T04:53:25.359Z,33.23
2018-03-20T04:55:53.130Z,31.37
2018-03-20T04:58:20.594Z,27.80
2018-03-20T05:00:48.059Z,32.37
2018-03-20T05:03:15.533Z,30.87
2018-03-20T05:05:43.010Z,32.70
2018-03-20T05:08:11.259Z,33.70
2018-03-20T05:10:38.740Z,30.00
2018-03-20T05:13:06.482Z,30.63
2018-03-20T05:15:34.027Z,31.67
2018-03-20T05:18:01.477Z,31.03
2018-03-20T05:20:34.651Z,32.20
2018-03-20T05:23:09.751Z,32.27
2018-03-20T05:25:37.235Z,32.20
2018-03-20T05:28:05.468Z,33.10
2018-03-20T05:30:32.941Z,30.60
2018-03-20T05:33:00.404Z,33.50
2018-03-20T05:35:27.942Z,30.80
2018-03-20T05:37:55.368Z,28.80
2018-03-20T05:40:22.826Z,30.23
2018-03-20T05:42:50.310Z,29.10
2018-03-20T05:45:18.048Z,27.30
2018-03-20T05:50:55.586Z,32.63
2018-03-20T05:53:23.318Z,29.53
2018-03-20T05:55:50.786Z,30.87
2018-03-20T05:58:18.475Z,28.57
2018-03-20T06:00:45.948Z,26.80
2018-03-20T06:03:13.418Z,27.10
2018-03-20T06:05:41.654Z,29.60
2018-03-20T06:08:09.119Z,30.63
2018-03-20T06:10:36.590Z,29.80
2018-03-20T06:13:04.058Z,28.50
2018-03-20T06:15:31.569Z,27.47
2018-03-20T06:17:59.002Z,29.43
2018-03-20T06:20:26.467Z,29.80
2018-03-20T06:22:53.942Z,25.87
2018-03-20T06:25:21.414Z,29.97
2018-03-20T06:27:48.892Z,27.33
2018-03-20T06:30:16.349Z,27.53
2018-03-20T06:32:43.814Z,30.93
2018-03-20T06:35:11.280Z,28.47
2018-03-20T06:37:39.522Z,29.80
2018-03-20T06:40:06.994Z,31.40
2018-03-20T06:42:34.467Z,28.83
2018-03-20T06:45:02.702Z,32.13
2018-03-20T06:47:30.165Z,33.03
2018-03-20T06:49:57.638Z,32.30
2018-03-20T06:52:25.108Z,32.60
2018-03-20T06:54:52.573Z,33.33
2018-03-20T06:57:20.039Z,35.90
2018-03-20T06:59:48.274Z,35.60
2018-03-20T07:02:15.759Z,35.73
2018-03-20T07:04:43.445Z,34.00
2018-03-20T07:07:10.914Z,33.90
2018-03-20T07:09:38.377Z,33.73
2018-03-20T07:12:05.853Z,36.77
2018-03-20T07:14:33.314Z,30.83
2018-03-20T07:17:00.786Z,32.50
2018-03-20T07:19:28.515Z,33.80
2018-03-20T07:21:55.982Z,32.97
2018-03-20T07:24:23.452Z,34.33
2018-03-20T07:26:50.909Z,26.57
2018-03-20T07:29:18.382Z,26.97
2018-03-20T07:31:45.847Z,31.67
2018-03-20T07:34:13.332Z,29.87
2018-03-20T07:36:41.559Z,30.77
2018-03-20T07:39:09.027Z,30.67
2018-03-20T07:41:36.493Z,33.37
2018-03-20T07:44:04.048Z,31.37
2018-03-20T07:46:31.502Z,34.67
2018-03-20T07:48:58.963Z,30.47
2018-03-20T07:51:26.430Z,29.17
2018-03-20T07:53:53.906Z,27.30
2018-03-20T07:56:21.363Z,28.37
2018-03-20T07:58:49.603Z,30.50
2018-03-20T08:01:17.075Z,30.70
2018-03-20T08:03:44.541Z,27.23
2018-03-20T08:06:12.014Z,27.73
2018-03-20T08:08:40.247Z,29.07
2018-03-20T08:11:07.715Z,27.40
2018-03-20T08:13:35.181Z,26.90
2018-03-20T08:16:02.653Z,27.53
2018-03-20T08:18:30.892Z,30.87
2018-03-20T08:20:58.361Z,27.37
2018-03-20T08:23:26.086Z,28.83
2018-03-20T08:25:53.586Z,24.93
2018-03-20T08:28:21.062Z,22.70
2018-03-20T08:30:48.537Z,22.73
2018-03-20T08:33:16.012Z,25.30
2018-03-20T08:35:43.510Z,23.67
2018-03-20T08:38:11.000Z,23.10
2018-03-20T08:40:39.233Z,20.90
2018-03-20T08:43:06.707Z,24.23
2018-03-20T08:45:34.182Z,22.27
2018-03-20T08:48:02.442Z,22.93
2018-03-20T08:50:29.920Z,23.17
2018-03-20T08:52:58.146Z,20.83
2018-03-20T08:55:25.622Z,23.20
2018-03-20T08:57:53.086Z,20.07
2018-03-20T09:00:20.558Z,21.43
2018-03-20T09:02:48.795Z,23.57
2018-03-20T09:05:16.261Z,22.07
2018-03-20T09:07:43.738Z,20.03
2018-03-20T09:10:11.208Z,19.97
2018-03-20T09:12:39.732Z,21.20
2018-03-20T09:15:07.193Z,19.70
2018-03-20T09:17:34.663Z,19.60
2018-03-20T09:20:02.133Z,18.77
2018-03-20T09:22:29.607Z,19.50
2018-03-20T09:24:57.071Z,18.63
2018-03-20T09:27:24.539Z,17.57
2018-03-20T09:29:52.284Z,17.10
2018-03-20T09:32:19.730Z,18.37
2018-03-20T09:34:47.197Z,17.63
2018-03-20T09:37:14.655Z,16.40
2018-03-20T09:39:42.127Z,20.80
2018-03-20T09:42:10.350Z,16.47
2018-03-20T09:44:37.819Z,17.37
2018-03-20T09:47:05.273Z,17.63
2018-03-20T09:49:32.734Z,17.70
2018-03-20T09:52:00.195Z,18.10
2018-03-20T09:54:27.663Z,16.50
2018-03-20T09:56:55.134Z,15.73
2018-03-20T09:59:22.594Z,16.03
2018-03-20T10:01:50.059Z,15.87
2018-03-20T10:04:18.281Z,15.13
2018-03-20T10:06:45.750Z,16.70
2018-03-20T10:09:13.218Z,14.03
2018-03-20T10:11:40.919Z,15.57
2018-03-20T10:14:09.170Z,15.50
2018-03-20T10:16:36.619Z,14.63
2018-03-20T10:19:04.081Z,13.90
2018-03-20T10:21:31.538Z,12.37
2018-03-20T10:23:59.003Z,12.73
2018-03-20T10:26:26.461Z,13.10
2018-03-20T10:28:53.956Z,13.03
2018-03-20T10:31:21.406Z,16.07
2018-03-20T10:33:48.866Z,11.83
2018-03-20T10:36:16.322Z,13.23
2018-03-20T10:38:43.788Z,21.50
2018-03-20T10:41:11.258Z,15.90
2018-03-20T10:43:38.719Z,16.40
2018-03-20T10:46:06.198Z,14.80
2018-03-20T10:48:33.651Z,15.33
2018-03-20T10:51:01.146Z,14.07
2018-03-20T10:53:29.376Z,13.97
2018-03-20T10:55:56.841Z,12.57
2018-03-20T10:58:24.303Z,10.57
2018-03-20T11:00:51.763Z,11.20
2018-03-20T11:03:19.223Z,11.70
2018-03-20T11:05:46.691Z,12.70
2018-03-20T11:08:14.156Z,11.43
2018-03-20T11:10:41.615Z,10.87
2018-03-20T11:13:09.091Z,12.30
2018-03-20T11:15:37.309Z,11.50
2018-03-20T11:18:04.781Z,11.73
2018-03-20T11:20:32.512Z,12.73
2018-03-20T11:22:59.975Z,10.90
2018-03-20T11:25:27.431Z,11.43
2018-03-20T11:27:54.890Z,10.83
2018-03-20T11:30:22.338Z,10.40
2018-03-20T11:32:49.808Z,10.20
2018-03-20T11:35:17.282Z,10.97
2018-03-20T11:37:44.743Z,12.23
2018-03-20T11:40:12.207Z,10.90
2018-03-20T11:42:39.932Z,9.30
2018-03-20T11:45:07.378Z,10.77
2018-03-20T11:47:34.846Z,12.60
2018-03-20T11:50:02.608Z,12.37
2018-03-20T11:52:30.068Z,11.77
2018-03-20T11:54:57.529Z,11.90
2018-03-20T11:57:25.002Z,11.07
2018-03-20T11:59:52.462Z,10.70
2018-03-20T12:02:19.918Z,9.90
2018-03-20T12:04:47.382Z,9.50
2018-03-20T12:07:14.870Z,10.07
2018-03-20T12:09:48.995Z,10.40
2018-03-20T12:12:17.224Z,9.40
2018-03-20T12:14:44.690Z,10.60
2018-03-20T12:17:12.170Z,13.67
2018-03-20T12:19:40.411Z,23.67
2018-03-20T12:22:08.898Z,9.40
2018-03-20T12:24:36.363Z,10.73
2018-03-20T12:27:03.814Z,12.03
2018-03-20T12:29:31.452Z,14.90
2018-03-20T12:31:58.924Z,12.13
2018-03-20T12:34:26.429Z,9.70
2018-03-20T12:36:54.661Z,9.87
2018-03-20T12:39:22.602Z,9.43
2018-03-20T12:41:50.073Z,10.90
2018-03-20T12:44:17.541Z,8.37
2018-03-20T12:46:45.103Z,9.87
2018-03-20T12:49:12.506Z,9.27
2018-03-20T12:51:39.983Z,15.97
2018-03-20T12:54:07.437Z,9.33
2018-03-20T12:56:34.908Z,10.37
2018-03-20T12:59:02.374Z,8.70
2018-03-20T13:01:30.186Z,10.80
2018-03-20T13:03:57.591Z,10.47
2018-03-20T13:06:25.048Z,9.20
2018-03-20T13:08:52.543Z,11.63
2018-03-20T13:11:20.261Z,8.67
2018-03-20T13:13:47.726Z,10.90
2018-03-20T13:16:15.195Z,8.00
2018-03-20T13:18:42.658Z,12.20
2018-03-20T13:21:10.115Z,9.17
2018-03-20T13:23:37.574Z,11.63
2018-03-20T13:26:05.795Z,11.60
2018-03-20T13:28:34.022Z,11.53
2018-03-20T13:31:01.476Z,10.70
2018-03-20T13:33:28.950Z,11.33
2018-03-20T13:35:56.674Z,9.63
2018-03-20T13:38:24.139Z,10.37
2018-03-20T13:40:51.595Z,11.10
2018-03-20T13:43:19.055Z,11.47
2018-03-20T13:45:46.527Z,10.47
2018-03-20T13:48:13.989Z,13.30
2018-03-20T13:50:41.442Z,9.90
2018-03-20T13:56:03.280Z,10.90
2018-03-20T13:58:30.894Z,10.73
2018-03-20T14:00:59.128Z,8.70
2018-03-20T14:03:26.593Z,10.80
2018-03-20T14:05:54.046Z,11.87
2018-03-20T14:08:21.503Z,9.90
2018-03-20T14:10:49.731Z,7.43
2018-03-20T14:13:17.207Z,10.60
2018-03-20T14:15:44.658Z,9.67
2018-03-20T14:18:12.129Z,9.87
2018-03-20T14:20:39.584Z,10.10
2018-03-20T14:23:07.048Z,10.53
2018-03-20T14:25:34.519Z,10.43
2018-03-20T14:28:01.995Z,12.20
2018-03-20T14:30:29.486Z,10.77
2018-03-20T14:32:56.938Z,9.73
2018-03-20T14:35:24.414Z,10.30
2018-03-20T14:37:51.874Z,12.33
2018-03-20T14:40:19.350Z,10.20
2018-03-20T14:42:46.823Z,10.77
2018-03-20T14:45:14.279Z,10.47
2018-03-20T14:47:41.752Z,12.00
2018-03-20T14:50:09.207Z,14.87
2018-03-20T14:52:36.925Z,11.23
2018-03-20T14:55:04.380Z,10.53
2018-03-20T14:57:31.846Z,13.40
2018-03-20T14:59:59.318Z,11.40
2018-03-20T15:02:27.058Z,13.60
2018-03-20T15:04:54.541Z,9.83
2018-03-20T15:07:22.051Z,10.17
2018-03-20T15:09:49.478Z,10.67
2018-03-20T15:12:16.933Z,12.93
2018-03-20T15:14:44.398Z,13.50
2018-03-20T15:17:12.209Z,14.70
2018-03-20T15:19:39.672Z,12.07
2018-03-20T15:22:07.133Z,10.87
2018-03-20T15:24:34.602Z,13.23
2018-03-20T15:27:02.075Z,14.50
2018-03-20T15:29:29.542Z,16.03
2018-03-20T15:31:57.050Z,12.03
2018-03-20T15:34:25.251Z,13.33
2018-03-20T15:36:52.726Z,12.40
2018-03-20T15:39:20.213Z,14.73
2018-03-20T15:41:48.445Z,15.07
2018-03-20T15:44:15.921Z,12.43
2018-03-20T15:46:43.381Z,14.83
2018-03-20T15:49:10.843Z,11.53
2018-03-20T15:51:40.306Z,15.63
2018-03-20T15:54:08.067Z,13.17
2018-03-20T15:56:35.535Z,12.97
2018-03-20T15:59:03.013Z,12.17
2018-03-20T16:01:30.519Z,13.13
2018-03-20T16:03:57.976Z,12.83
2018-03-20T16:06:25.446Z,13.73
2018-03-20T16:08:52.906Z,14.23
2018-03-20T16:11:20.669Z,13.73
2018-03-20T16:13:48.130Z,13.63
2018-03-20T16:16:15.602Z,13.17
2018-03-20T16:18:43.346Z,13.23
2018-03-20T16:21:10.814Z,12.60
2018-03-20T16:23:38.566Z,18.03
2018-03-20T16:26:06.024Z,13.50
2018-03-20T16:28:33.548Z,12.90
2018-03-20T16:31:00.999Z,12.80
2018-03-20T16:33:28.468Z,14.90
2018-03-20T16:35:56.690Z,12.57
2018-03-20T16:38:24.182Z,13.40
2018-03-20T16:40:51.635Z,12.83
2018-03-20T16:43:19.108Z,15.03
2018-03-20T16:45:47.338Z,16.40
2018-03-20T16:48:14.790Z,13.10
2018-03-20T16:50:42.251Z,15.17
2018-03-20T16:53:09.716Z,16.90
2018-03-20T16:55:37.175Z,13.27
2018-03-20T16:58:04.630Z,14.37
2018-03-20T17:00:32.098Z,14.10
2018-03-20T17:02:59.574Z,14.83
2018-03-20T17:05:27.042Z,15.10
2018-03-20T17:07:55.279Z,14.93
2018-03-20T17:10:22.746Z,14.50
2018-03-20T17:12:50.231Z,13.83
2018-03-20T17:15:18.453Z,14.50
2018-03-20T17:17:45.913Z,14.97
2018-03-20T17:20:13.377Z,14.90
2018-03-20T17:22:40.845Z,15.10
2018-03-20T17:25:08.308Z,14.73
2018-03-20T17:27:35.768Z,15.77
2018-03-20T17:30:03.475Z,16.33
2018-03-20T17:32:30.940Z,16.67
2018-03-20T17:34:58.716Z,16.97
2018-03-20T17:37:26.177Z,14.37
2018-03-20T17:39:53.693Z,18.87
2018-03-20T17:42:21.138Z,17.93
2018-03-20T17:44:48.846Z,16.07
2018-03-20T17:47:16.311Z,16.47
2018-03-20T17:49:43.765Z,17.77
2018-03-20T17:52:11.239Z,22.10
2018-03-20T17:54:38.693Z,22.83
2018-03-20T17:57:06.166Z,19.87
2018-03-20T17:59:33.649Z,17.93
2018-03-20T18:02:01.873Z,20.83
2018-03-20T18:04:29.342Z,19.67
2018-03-20T18:06:56.800Z,19.90
2018-03-20T18:09:24.274Z,16.60
2018-03-20T18:11:51.739Z,19.90
2018-03-20T18:14:19.202Z,14.97
2018-03-20T18:16:46.664Z,16.30
2018-03-20T18:19:14.910Z,21.30
2018-03-20T18:21:42.374Z,21.73
2018-03-20T18:24:09.837Z,23.20
2018-03-20T18:26:37.303Z,18.63
2018-03-20T18:29:05.018Z,18.33
2018-03-20T18:31:32.479Z,15.73
2018-03-20T18:33:59.954Z,22.50
2018-03-20T18:36:27.798Z,17.87
2018-03-20T18:38:55.272Z,16.20
2018-03-20T18:41:22.747Z,18.47
2018-03-20T18:43:50.206Z,15.87
2018-03-20T18:46:17.674Z,48.50
2018-03-20T18:48:45.134Z,42.57
2018-03-20T18:51:12.607Z,30.30
2018-03-20T18:53:40.071Z,47.23
2018-03-20T18:56:08.303Z,17.33
2018-03-20T18:58:35.983Z,14.23
2018-03-20T19:01:03.449Z,19.07
2018-03-20T19:03:30.931Z,17.20
2018-03-20T19:05:58.396Z,19.40
2018-03-20T19:08:25.875Z,20.17
2018-03-20T19:10:53.341Z,15.90
2018-03-20T19:13:20.829Z,17.63
2018-03-20T19:15:48.546Z,18.97
2018-03-20T19:18:16.008Z,19.47
2018-03-20T19:20:43.482Z,15.50
2018-03-20T19:23:10.940Z,13.27
2018-03-20T19:25:38.459Z,13.83
2018-03-20T19:28:05.932Z,14.57
2018-03-20T19:30:33.590Z,12.43
2018-03-20T19:33:01.058Z,14.57
2018-03-20T19:35:28.535Z,12.90
2018-03-20T19:37:56.004Z,12.13
2018-03-20T19:40:23.462Z,13.00
2018-03-20T19:42:50.930Z,17.23
2018-03-20T19:45:18.616Z,15.03
2018-03-20T19:47:46.858Z,16.63
2018-03-20T19:50:14.585Z,13.87
2018-03-20T19:52:42.087Z,17.43
2018-03-20T19:55:09.560Z,15.70
2018-03-20T19:57:37.781Z,17.43
2018-03-20T20:00:05.260Z,19.10
2018-03-20T20:02:32.723Z,15.33
2018-03-20T20:05:00.191Z,17.80
2018-03-20T20:07:27.908Z,14.03
2018-03-20T20:09:55.678Z,16.07
2018-03-20T20:12:23.153Z,17.93
2018-03-20T20:14:50.842Z,16.23
2018-03-20T20:17:18.320Z,15.67
2018-03-20T20:19:46.545Z,16.70
2018-03-20T20:22:14.233Z,16.77
2018-03-20T20:24:41.699Z,17.97
2018-03-20T20:27:09.175Z,17.50
2018-03-20T20:29:37.402Z,15.33
2018-03-20T20:32:04.866Z,17.67
2018-03-20T20:34:32.371Z,17.07
2018-03-20T20:36:59.808Z,15.00
2018-03-20T20:39:28.041Z,16.57
2018-03-20T20:41:55.527Z,16.13
2018-03-20T20:44:23.003Z,16.27
2018-03-20T20:46:51.243Z,17.10
2018-03-20T20:49:18.707Z,15.93
2018-03-20T20:51:46.438Z,17.30
2018-03-20T20:54:13.893Z,17.87
2018-03-20T20:56:41.398Z,17.60
2018-03-20T20:59:08.857Z,15.77
2018-03-20T21:01:36.566Z,16.30
2018-03-20T21:04:04.034Z,19.27
2018-03-20T21:06:31.494Z,20.13
2018-03-20T21:08:59.245Z,19.07
2018-03-20T21:11:26.715Z,19.67
2018-03-20T21:13:54.182Z,21.43
2018-03-20T21:16:21.650Z,19.47
2018-03-20T21:18:49.173Z,18.27
2018-03-20T21:21:16.645Z,21.23
2018-03-20T21:23:44.107Z,21.80
2018-03-20T21:26:11.569Z,24.77
2018-03-20T21:28:39.030Z,22.87
2018-03-20T21:31:07.276Z,22.33
2018-03-20T21:33:34.738Z,24.27
2018-03-20T21:36:02.219Z,26.37
2018-03-20T21:38:29.692Z,24.80
2018-03-20T21:40:57.156Z,24.90
2018-03-20T21:43:24.628Z,30.93
2018-03-20T21:45:53.070Z,31.80
2018-03-20T21:48:20.538Z,32.10
2018-03-20T21:50:47.999Z,32.80
2018-03-20T21:53:15.835Z,27.87
2018-03-20T21:55:43.301Z,30.83
2018-03-20T21:58:10.803Z,31.53
2018-03-20T22:00:38.281Z,32.97
2018-03-20T22:03:05.756Z,31.53
2018-03-20T22:05:33.228Z,36.30
2018-03-20T22:08:01.086Z,32.43
2018-03-20T22:10:28.770Z,33.60
2018-03-20T22:12:56.251Z,33.63
2018-03-20T22:15:23.708Z,30.47
2018-03-20T22:17:51.187Z,26.60
2018-03-20T22:20:19.414Z,27.47
2018-03-20T22:22:46.912Z,25.37
2018-03-20T22:25:15.141Z,21.73
2018-03-20T22:27:43.373Z,27.87
2018-03-20T22:30:10.835Z,24.87
2018-03-20T22:32:38.319Z,24.10
2018-03-20T22:35:05.790Z,26.07
2018-03-20T22:37:33.291Z,28.50
2018-03-20T22:40:00.754Z,30.33
2018-03-20T22:42:28.979Z,27.80
2018-03-20T22:44:56.447Z,31.73
2018-03-20T22:47:23.916Z,27.40
2018-03-20T22:49:51.396Z,26.63
2018-03-20T22:52:19.630Z,27.03
2018-03-20T22:54:47.099Z,25.87
2018-03-20T22:57:14.566Z,22.97
2018-03-20T22:59:42.022Z,24.27
2018-03-20T23:02:09.504Z,24.43
2018-03-20T23:04:37.743Z,24.90
2018-03-20T23:07:05.224Z,26.50
2018-03-20T23:09:32.686Z,28.03
2018-03-20T23:12:00.160Z,23.90
2018-03-20T23:14:28.394Z,26.60
2018-03-20T23:16:55.855Z,27.57
2018-03-20T23:19:23.582Z,28.50
2018-03-20T23:21:51.046Z,26.00
2018-03-20T23:24:18.514Z,25.50
2018-03-20T23:26:45.970Z,28.10
2018-03-20T23:29:13.721Z,28.83
2018-03-20T23:31:41.484Z,27.80
2018-03-20T23:34:08.968Z,29.00
2018-03-20T23:36:36.438Z,28.17
2018-03-20T23:39:03.896Z,28.00
2018-03-20T23:41:31.362Z,26.60
2018-03-20T23:43:58.823Z,29.17
2018-03-20T23:46:26.298Z,25.80
2018-03-20T23:48:54.530Z,30.80
2018-03-20T23:51:21.989Z,28.27
2018-03-20T23:53:49.456Z,32.57
2018-03-20T23:56:16.913Z,27.73
2018-03-20T23:58:44.382Z,27.67
